createdAt,value
2022-10-01T00:00:51.390Z,3.33
2022-10-01T00:03:18.150Z,2.50
2022-10-01T00:05:44.789Z,2.58
2022-10-01T00:08:11.710Z,2.70
2022-10-01T00:10:41.805Z,2.53
2022-10-01T00:13:08.573Z,2.63
2022-10-01T00:15:39.207Z,2.75
2022-10-01T00:18:05.822Z,3.92
2022-10-01T00:20:32.371Z,1.55
2022-10-01T00:22:58.815Z,1.98
2022-10-01T00:25:25.481Z,2.40
2022-10-01T00:27:51.966Z,1.77
2022-10-01T00:30:18.471Z,4.28
2022-10-01T00:32:44.914Z,2.70
2022-10-01T00:35:12.296Z,2.00
2022-10-01T00:37:38.859Z,1.83
2022-10-01T00:40:06.039Z,2.08
2022-10-01T00:42:32.693Z,3.28
2022-10-01T00:45:01.523Z,3.50
2022-10-01T00:47:40.938Z,2.70
2022-10-01T00:50:28.745Z,2.08
2022-10-01T00:52:59.210Z,2.10
2022-10-01T00:55:27.730Z,2.05
2022-10-01T00:57:54.953Z,2.10
2022-10-01T01:00:21.442Z,2.05
2022-10-01T01:02:47.964Z,1.88
2022-10-01T01:05:14.739Z,2.00
2022-10-01T01:07:45.263Z,2.25
2022-10-01T01:10:13.367Z,1.70
2022-10-01T01:13:18.385Z,1.38
2022-10-01T01:18:41.629Z,1.98
2022-10-01T01:21:41.038Z,2.90
2022-10-01T01:24:19.659Z,1.77
2022-10-01T01:26:55.280Z,3.65
2022-10-01T01:29:54.225Z,1.38
2022-10-01T01:32:50.405Z,1.75
2022-10-01T01:35:31.290Z,1.80
2022-10-01T01:38:02.068Z,1.52
2022-10-01T01:40:28.648Z,2.40
2022-10-01T01:42:55.723Z,1.42
2022-10-01T01:45:24.503Z,1.50
2022-10-01T01:47:51.187Z,1.40
2022-10-01T01:50:17.847Z,1.38
2022-10-01T01:52:44.356Z,1.20
2022-10-01T01:55:10.855Z,1.50
2022-10-01T01:57:39.918Z,1.63
2022-10-01T02:00:06.964Z,1.73
2022-10-01T02:02:33.736Z,2.17
2022-10-01T02:05:02.126Z,2.22
2022-10-01T02:07:53.531Z,1.25
2022-10-01T02:10:41.726Z,1.15
2022-10-01T02:13:24.072Z,1.83
2022-10-01T02:16:08.241Z,1.02
2022-10-01T02:21:12.425Z,1.45
2022-10-01T02:23:43.055Z,1.80
2022-10-01T02:26:12.640Z,1.45
2022-10-01T02:28:39.494Z,3.20
2022-10-01T02:31:06.087Z,1.02
2022-10-01T02:33:34.182Z,1.30
2022-10-01T02:36:00.962Z,2.58
2022-10-01T02:38:27.431Z,0.85
2022-10-01T02:40:55.552Z,2.45
2022-10-01T02:43:28.088Z,1.52
2022-10-01T02:45:57.658Z,1.02
2022-10-01T02:48:24.186Z,1.13
2022-10-01T02:50:55.087Z,1.70
2022-10-01T02:53:31.657Z,0.93
2022-10-01T02:55:58.481Z,2.75
2022-10-01T02:58:24.940Z,0.93
2022-10-01T03:00:51.731Z,0.77
2022-10-01T03:03:18.224Z,0.98
2022-10-01T03:05:44.662Z,1.38
2022-10-01T03:08:11.122Z,2.83
2022-10-01T03:10:37.579Z,1.00
2022-10-01T03:13:06.491Z,1.33
2022-10-01T03:15:33.075Z,1.05
2022-10-01T03:17:59.556Z,0.93
2022-10-01T03:20:26.839Z,1.38
2022-10-01T03:22:53.397Z,0.85
2022-10-01T03:25:19.856Z,1.23
2022-10-01T03:27:46.594Z,1.67
2022-10-01T03:30:13.201Z,1.65
2022-10-01T03:32:39.813Z,1.27
2022-10-01T03:35:06.780Z,0.80
2022-10-01T03:37:33.288Z,1.55
2022-10-01T03:39:59.829Z,1.25
2022-10-01T03:42:26.287Z,1.75
2022-10-01T03:44:52.975Z,1.13
2022-10-01T03:47:19.424Z,1.15
2022-10-01T03:49:45.893Z,1.75
2022-10-01T03:52:12.599Z,0.80
2022-10-01T03:54:39.355Z,1.27
2022-10-01T03:57:06.760Z,1.77
2022-10-01T03:59:33.218Z,0.60
2022-10-01T04:02:00.046Z,1.60
2022-10-01T04:04:28.911Z,1.15
2022-10-01T04:06:55.442Z,1.45
2022-10-01T04:09:21.895Z,1.40
2022-10-01T04:11:48.705Z,0.90
2022-10-01T04:14:15.296Z,0.73
2022-10-01T04:16:41.763Z,2.05
2022-10-01T04:19:08.197Z,0.85
2022-10-01T04:21:35.308Z,0.90
2022-10-01T04:24:05.047Z,2.70
2022-10-01T04:26:31.740Z,1.48
2022-10-01T04:28:58.201Z,0.80
2022-10-01T04:31:25.112Z,0.75
2022-10-01T04:33:55.534Z,1.13
2022-10-01T04:36:22.134Z,1.20
2022-10-01T04:38:51.304Z,1.40
2022-10-01T04:41:17.769Z,3.13
2022-10-01T04:43:44.240Z,0.77
2022-10-01T04:46:10.711Z,3.20
2022-10-01T04:48:37.176Z,1.35
2022-10-01T04:51:03.711Z,3.25
2022-10-01T04:53:30.514Z,1.17
2022-10-01T04:55:56.989Z,0.90
2022-10-01T04:58:23.465Z,1.02
2022-10-01T05:00:50.346Z,1.33
2022-10-01T05:03:17.536Z,0.80
2022-10-01T05:05:43.982Z,1.27
2022-10-01T05:08:10.489Z,1.67
2022-10-01T05:10:37.127Z,1.48
2022-10-01T05:13:03.649Z,1.00
2022-10-01T05:15:30.525Z,0.80
2022-10-01T05:17:57.087Z,0.50
2022-10-01T05:20:25.942Z,1.20
2022-10-01T05:22:52.542Z,0.90
2022-10-01T05:25:19.144Z,1.10
2022-10-01T05:27:46.004Z,1.77
2022-10-01T05:30:13.294Z,0.95
2022-10-01T05:32:39.788Z,1.42
2022-10-01T05:35:07.064Z,2.92
2022-10-01T05:37:33.911Z,1.08
2022-10-01T05:40:00.914Z,1.40
2022-10-01T05:42:27.379Z,0.90
2022-10-01T05:44:53.860Z,1.20
2022-10-01T05:47:20.945Z,1.23
2022-10-01T05:49:47.473Z,1.25
2022-10-01T05:52:14.758Z,1.83
2022-10-01T05:54:41.239Z,1.58
2022-10-01T05:57:07.961Z,0.90
2022-10-01T05:59:34.953Z,0.75
2022-10-01T06:02:01.538Z,1.92
2022-10-01T06:04:28.038Z,1.00
2022-10-01T06:06:55.035Z,0.50
2022-10-01T06:09:21.465Z,0.75
2022-10-01T06:11:48.892Z,1.17
2022-10-01T06:14:16.062Z,1.00
2022-10-01T06:16:42.680Z,2.95
2022-10-01T06:19:09.189Z,1.00
2022-10-01T06:21:36.146Z,1.02
2022-10-01T06:24:02.819Z,1.67
2022-10-01T06:26:29.331Z,0.65
2022-10-01T06:28:56.601Z,1.38
2022-10-01T06:31:23.274Z,0.73
2022-10-01T06:33:49.821Z,1.35
2022-10-01T06:36:16.266Z,1.92
2022-10-01T06:38:43.292Z,0.55
2022-10-01T06:41:09.879Z,1.38
2022-10-01T06:43:36.343Z,1.25
2022-10-01T06:46:03.799Z,1.45
2022-10-01T06:48:31.661Z,1.42
2022-10-01T06:50:58.774Z,1.20
2022-10-01T06:53:26.441Z,1.27
2022-10-01T06:55:52.881Z,3.08
2022-10-01T06:58:20.969Z,3.85
2022-10-01T07:00:50.876Z,2.17
2022-10-01T07:03:18.969Z,1.17
2022-10-01T07:05:45.470Z,1.85
2022-10-01T07:08:12.929Z,2.38
2022-10-01T07:10:39.907Z,0.70
2022-10-01T07:13:10.957Z,2.13
2022-10-01T07:15:37.527Z,1.80
2022-10-01T07:18:04.785Z,2.40
2022-10-01T07:20:41.666Z,2.22
2022-10-01T07:23:10.689Z,0.90
2022-10-01T07:25:38.796Z,3.20
2022-10-01T07:28:05.920Z,1.45
2022-10-01T07:30:32.474Z,1.67
2022-10-01T07:32:59.173Z,3.00
2022-10-01T07:35:25.645Z,1.15
2022-10-01T07:37:52.174Z,1.05
2022-10-01T07:40:18.731Z,2.08
2022-10-01T07:42:55.340Z,0.82
2022-10-01T07:45:22.666Z,4.18
2022-10-01T07:47:55.953Z,1.48
2022-10-01T07:50:22.717Z,2.87
2022-10-01T07:52:56.231Z,11.68
2022-10-01T07:55:23.473Z,11.02
2022-10-01T07:57:54.062Z,9.82
2022-10-01T08:00:20.676Z,10.02
2022-10-01T08:02:48.686Z,7.53
2022-10-01T08:05:17.992Z,11.13
2022-10-01T08:07:45.554Z,11.20
2022-10-01T08:10:12.390Z,6.63
2022-10-01T08:12:39.157Z,6.65
2022-10-01T08:15:10.218Z,6.97
2022-10-01T08:17:37.804Z,5.68
2022-10-01T08:20:05.116Z,8.15
2022-10-01T08:22:32.227Z,6.18
2022-10-01T08:24:58.671Z,5.72
2022-10-01T08:27:25.937Z,7.60
2022-10-01T08:29:52.649Z,5.15
2022-10-01T08:32:19.327Z,6.65
2022-10-01T08:34:46.579Z,6.35
2022-10-01T08:37:14.303Z,5.35
2022-10-01T08:39:40.762Z,4.30
2022-10-01T08:42:26.134Z,5.50
2022-10-01T08:44:52.597Z,4.25
2022-10-01T08:47:38.124Z,3.90
2022-10-01T08:50:08.386Z,5.95
2022-10-01T08:52:37.415Z,3.78
2022-10-01T08:55:10.688Z,5.75
2022-10-01T08:57:42.834Z,4.40
2022-10-01T09:00:14.374Z,4.38
2022-10-01T09:02:42.093Z,2.95
2022-10-01T09:05:30.207Z,3.10
2022-10-01T09:08:18.521Z,3.60
2022-10-01T09:10:48.627Z,4.75
2022-10-01T09:13:53.010Z,6.90
2022-10-01T09:16:25.874Z,7.95
2022-10-01T09:19:07.570Z,11.13
2022-10-01T09:21:36.974Z,12.02
2022-10-01T09:24:04.789Z,9.63
2022-10-01T09:26:31.442Z,10.27
2022-10-01T09:29:00.059Z,8.32
2022-10-01T09:31:41.178Z,8.63
2022-10-01T09:34:23.748Z,7.03
2022-10-01T09:37:14.687Z,6.15
2022-10-01T09:39:44.463Z,6.65
2022-10-01T09:42:10.924Z,6.32
2022-10-01T09:44:37.639Z,14.48
2022-10-01T09:47:18.825Z,21.50
2022-10-01T09:49:46.063Z,22.80
2022-10-01T09:52:28.700Z,23.48
2022-10-01T09:55:01.016Z,23.90
2022-10-01T09:57:27.371Z,20.55
2022-10-01T10:00:04.129Z,23.48
2022-10-01T10:02:32.483Z,23.30
2022-10-01T10:05:08.403Z,22.35
2022-10-01T10:07:35.184Z,22.05
2022-10-01T10:10:25.303Z,20.52
2022-10-01T10:13:26.281Z,20.17
2022-10-01T10:15:57.381Z,22.02
2022-10-01T10:18:33.951Z,19.85
2022-10-01T10:21:02.657Z,20.10
2022-10-01T10:23:29.423Z,19.52
2022-10-01T10:26:03.250Z,20.58
2022-10-01T10:28:44.585Z,20.08
2022-10-01T10:31:25.408Z,19.27
2022-10-01T10:34:31.816Z,20.23
2022-10-01T10:37:04.961Z,18.95
2022-10-01T10:39:36.529Z,29.77
2022-10-01T10:42:04.032Z,45.53
2022-10-01T10:44:35.088Z,47.38
2022-10-01T10:47:03.461Z,54.20
2022-10-01T10:49:31.315Z,59.08
2022-10-01T10:51:59.727Z,67.38
2022-10-01T10:54:37.523Z,76.22
2022-10-01T10:57:28.429Z,83.13
2022-10-01T11:00:11.669Z,96.13
2022-10-01T11:02:39.811Z,92.15
2022-10-01T11:05:22.036Z,108.68
2022-10-01T11:07:50.367Z,97.15
2022-10-01T11:10:44.039Z,97.32
2022-10-01T11:13:13.703Z,96.57
2022-10-01T11:15:45.790Z,98.68
2022-10-01T11:18:27.447Z,97.93
2022-10-01T11:21:11.805Z,106.63
2022-10-01T11:26:24.054Z,99.07
2022-10-01T11:29:25.125Z,106.20
2022-10-01T11:32:03.319Z,86.32
2022-10-01T11:34:39.411Z,86.32
2022-10-01T11:37:28.414Z,94.82
2022-10-01T11:39:55.660Z,90.25
2022-10-01T11:42:24.713Z,90.70
2022-10-01T11:44:58.561Z,85.53
2022-10-01T11:47:33.076Z,96.20
2022-10-01T11:50:38.496Z,84.32
2022-10-01T11:53:15.525Z,86.18
2022-10-01T11:56:06.550Z,86.00
2022-10-01T11:59:00.749Z,79.65
2022-10-01T12:01:41.114Z,80.43
2022-10-01T12:04:32.194Z,77.43
2022-10-01T12:07:10.798Z,74.72
2022-10-01T12:10:18.675Z,78.13
2022-10-01T12:12:54.062Z,72.47
2022-10-01T12:15:31.220Z,76.10
2022-10-01T12:18:06.490Z,73.25
2022-10-01T12:20:45.089Z,73.30
2022-10-01T12:23:14.628Z,67.15
2022-10-01T12:26:05.913Z,67.63
2022-10-01T12:28:37.959Z,66.72
2022-10-01T12:31:18.541Z,60.05
2022-10-01T12:34:06.385Z,61.97
2022-10-01T12:36:45.833Z,62.70
2022-10-01T12:39:32.201Z,64.13
2022-10-01T12:42:06.690Z,59.53
2022-10-01T12:44:45.736Z,58.90
2022-10-01T12:47:23.061Z,59.47
2022-10-01T12:50:11.375Z,53.42
2022-10-01T12:52:50.459Z,58.95
2022-10-01T12:55:41.666Z,56.85
2022-10-01T12:59:06.348Z,50.65
2022-10-01T13:02:04.187Z,52.20
2022-10-01T13:04:42.659Z,51.50
2022-10-01T13:07:25.242Z,48.03
2022-10-01T13:10:07.999Z,49.03
2022-10-01T13:12:47.181Z,53.22
2022-10-01T13:15:21.662Z,49.90
2022-10-01T13:18:09.241Z,50.92
2022-10-01T13:20:41.156Z,45.67
2022-10-01T13:23:31.455Z,48.63
2022-10-01T13:26:05.758Z,46.33
2022-10-01T13:28:55.934Z,43.92
2022-10-01T13:31:34.973Z,45.17
2022-10-01T13:34:02.681Z,46.42
2022-10-01T13:36:33.789Z,44.10
2022-10-01T13:39:00.516Z,44.75
2022-10-01T13:41:29.638Z,42.78
2022-10-01T13:44:03.066Z,47.65
2022-10-01T13:46:31.644Z,41.03
2022-10-01T13:49:07.048Z,40.47
2022-10-01T13:51:37.345Z,39.50
2022-10-01T13:54:06.345Z,43.78
2022-10-01T13:56:36.605Z,37.90
2022-10-01T13:59:04.483Z,38.10
2022-10-01T14:01:38.266Z,35.83
2022-10-01T14:04:09.305Z,36.00
2022-10-01T14:06:36.193Z,33.63
2022-10-01T14:09:28.483Z,35.65
2022-10-01T14:12:33.187Z,36.30
2022-10-01T14:15:19.384Z,33.13
2022-10-01T14:17:47.424Z,29.77
2022-10-01T14:20:23.591Z,33.50
2022-10-01T14:23:13.703Z,32.63
2022-10-01T14:25:43.190Z,36.78
2022-10-01T14:28:16.401Z,32.78
2022-10-01T14:31:10.776Z,32.97
2022-10-01T14:33:53.228Z,27.40
2022-10-01T14:36:29.540Z,33.47
2022-10-01T14:39:15.273Z,32.55
2022-10-01T14:41:42.085Z,31.65
2022-10-01T14:44:26.772Z,31.55
2022-10-01T14:46:57.303Z,29.67
2022-10-01T14:49:25.925Z,28.00
2022-10-01T14:51:55.157Z,25.27
2022-10-01T14:54:21.827Z,28.30
2022-10-01T14:56:48.507Z,22.65
2022-10-01T14:59:27.903Z,24.45
2022-10-01T15:01:56.953Z,24.83
2022-10-01T15:04:23.492Z,23.35
2022-10-01T15:06:50.379Z,21.33
2022-10-01T15:09:18.903Z,22.50
2022-10-01T15:11:47.447Z,24.50
2022-10-01T15:14:19.260Z,20.77
2022-10-01T15:16:45.760Z,21.58
2022-10-01T15:19:15.624Z,25.02
2022-10-01T15:21:41.921Z,23.90
2022-10-01T15:24:35.561Z,33.80
2022-10-01T15:27:02.017Z,37.45
2022-10-01T15:29:28.807Z,52.53
2022-10-01T15:31:56.350Z,56.95
2022-10-01T15:34:23.672Z,52.20
2022-10-01T15:36:50.255Z,53.42
2022-10-01T15:39:35.887Z,42.30
2022-10-01T15:42:21.475Z,40.08
2022-10-01T15:44:49.201Z,36.75
2022-10-01T15:47:24.858Z,33.75
2022-10-01T15:50:17.055Z,30.77
2022-10-01T15:52:53.249Z,42.95
2022-10-01T15:55:25.393Z,39.83
2022-10-01T15:57:58.088Z,41.88
2022-10-01T16:00:26.765Z,36.50
2022-10-01T16:02:53.285Z,36.65
2022-10-01T16:05:25.374Z,39.17
2022-10-01T16:07:58.261Z,36.13
2022-10-01T16:10:38.292Z,37.47
2022-10-01T16:13:41.064Z,33.13
2022-10-01T16:16:13.262Z,34.00
2022-10-01T16:18:40.221Z,33.85
2022-10-01T16:21:09.102Z,32.65
2022-10-01T16:23:36.220Z,37.90
2022-10-01T16:26:06.791Z,36.10
2022-10-01T16:28:34.155Z,27.00
2022-10-01T16:31:01.081Z,31.88
2022-10-01T16:33:28.442Z,31.52
2022-10-01T16:36:07.073Z,34.65
2022-10-01T16:38:33.785Z,29.50
2022-10-01T16:41:00.491Z,32.17
2022-10-01T16:43:27.031Z,32.80
2022-10-01T16:45:53.939Z,27.52
2022-10-01T16:48:22.284Z,26.17
2022-10-01T16:50:48.774Z,25.73
2022-10-01T16:53:16.511Z,28.45
2022-10-01T16:55:43.134Z,28.63
2022-10-01T16:58:09.697Z,26.45
2022-10-01T17:00:37.207Z,25.73
2022-10-01T17:03:05.414Z,24.52
2022-10-01T17:05:33.505Z,22.70
2022-10-01T17:08:04.979Z,25.75
2022-10-01T17:10:32.553Z,22.73
2022-10-01T17:12:59.600Z,21.95
2022-10-01T17:15:27.363Z,23.20
2022-10-01T17:17:54.395Z,23.83
2022-10-01T17:20:22.078Z,22.60
2022-10-01T17:22:49.176Z,18.63
2022-10-01T17:25:19.754Z,21.60
2022-10-01T17:27:46.320Z,24.08
2022-10-01T17:30:12.986Z,22.52
2022-10-01T17:32:40.161Z,19.75
2022-10-01T17:35:07.365Z,18.77
2022-10-01T17:37:35.392Z,16.83
2022-10-01T17:40:01.947Z,17.88
2022-10-01T17:42:28.847Z,18.17
2022-10-01T17:44:55.514Z,18.45
2022-10-01T17:47:22.015Z,16.30
2022-10-01T17:49:48.577Z,19.58
2022-10-01T17:52:15.119Z,16.63
2022-10-01T17:54:41.570Z,17.45
2022-10-01T17:57:10.775Z,19.98
2022-10-01T17:59:37.909Z,17.13
2022-10-01T18:02:29.624Z,18.67
2022-10-01T18:04:54.734Z,17.52
2022-10-01T18:07:21.180Z,18.60
2022-10-01T18:09:47.630Z,18.38
2022-10-01T18:12:14.167Z,15.35
2022-10-01T18:14:41.016Z,18.55
2022-10-01T18:17:07.844Z,14.95
2022-10-01T18:22:21.450Z,12.40
2022-10-01T18:24:47.907Z,14.38
2022-10-01T18:27:14.787Z,13.02
2022-10-01T18:29:41.595Z,14.77
2022-10-01T18:32:22.323Z,15.27
2022-10-01T18:34:59.669Z,14.25
2022-10-01T18:37:46.723Z,10.40
2022-10-01T18:40:28.056Z,13.38
2022-10-01T18:43:09.331Z,14.65
2022-10-01T18:46:28.823Z,15.77
2022-10-01T18:48:58.727Z,14.02
2022-10-01T18:51:34.214Z,12.00
2022-10-01T18:54:34.425Z,13.77
2022-10-01T18:57:05.650Z,14.18
2022-10-01T18:59:48.250Z,12.70
2022-10-01T19:02:20.799Z,12.95
2022-10-01T19:05:01.565Z,11.10
2022-10-01T19:07:59.530Z,10.73
2022-10-01T19:10:39.491Z,9.90
2022-10-01T19:13:13.754Z,10.60
2022-10-01T19:15:43.006Z,9.52
2022-10-01T19:18:22.593Z,10.40
2022-10-01T19:20:58.415Z,9.43
2022-10-01T19:23:40.078Z,10.65
2022-10-01T19:26:23.790Z,9.73
2022-10-01T19:29:12.034Z,8.45
2022-10-01T19:31:57.776Z,9.35
2022-10-01T19:34:31.415Z,8.43
2022-10-01T19:37:03.878Z,10.50
2022-10-01T19:39:32.309Z,9.18
2022-10-01T19:42:01.721Z,9.57
2022-10-01T19:44:36.615Z,11.52
2022-10-01T19:47:15.665Z,8.07
2022-10-01T19:49:42.333Z,10.73
2022-10-01T19:52:12.921Z,7.50
2022-10-01T19:54:48.821Z,7.20
2022-10-01T19:57:22.683Z,8.05
2022-10-01T19:59:50.367Z,9.70
2022-10-01T20:02:54.653Z,9.45
2022-10-01T20:05:27.053Z,8.80
2022-10-01T20:08:17.843Z,9.23
2022-10-01T20:10:47.707Z,6.72
2022-10-01T20:13:38.698Z,10.13
2022-10-01T20:16:26.923Z,6.03
2022-10-01T20:19:13.781Z,6.55
2022-10-01T20:21:50.377Z,6.60
2022-10-01T20:24:28.910Z,6.35
2022-10-01T20:27:04.175Z,6.18
2022-10-01T20:29:43.334Z,5.97
2022-10-01T20:32:14.811Z,7.85
2022-10-01T20:35:06.143Z,6.80
2022-10-01T20:37:43.163Z,6.57
2022-10-01T20:40:41.360Z,7.55
2022-10-01T20:43:31.379Z,5.68
2022-10-01T20:45:58.355Z,9.25
2022-10-01T20:48:32.583Z,6.88
2022-10-01T20:51:09.535Z,5.55
2022-10-01T20:53:45.023Z,5.63
2022-10-01T20:56:19.494Z,5.50
2022-10-01T20:59:11.399Z,6.25
2022-10-01T21:01:40.406Z,6.22
2022-10-01T21:04:13.317Z,10.40
2022-10-01T21:06:44.323Z,6.00
2022-10-01T21:09:26.620Z,4.38
2022-10-01T21:12:00.475Z,5.72
2022-10-01T21:14:33.921Z,5.53
2022-10-01T21:17:19.050Z,4.47
2022-10-01T21:20:02.092Z,5.82
2022-10-01T21:23:09.618Z,5.35
2022-10-01T21:25:51.476Z,4.63
2022-10-01T21:28:41.228Z,4.97
2022-10-01T21:31:21.847Z,5.60
2022-10-01T21:34:12.643Z,4.13
2022-10-01T21:36:55.897Z,4.93
2022-10-01T21:39:31.805Z,4.00
2022-10-01T21:42:16.903Z,6.50
2022-10-01T21:44:58.531Z,4.43
2022-10-01T21:47:58.959Z,3.85
2022-10-01T21:51:30.189Z,5.15
2022-10-01T21:54:17.278Z,4.30
2022-10-01T21:57:02.087Z,5.88
2022-10-01T21:59:57.568Z,6.00
2022-10-01T22:02:27.028Z,4.70
2022-10-01T22:04:56.165Z,8.02
2022-10-01T22:07:32.117Z,9.75
2022-10-01T22:10:16.795Z,9.77
2022-10-01T22:12:45.442Z,11.00
2022-10-01T22:15:22.802Z,13.68
2022-10-01T22:17:50.145Z,12.00
2022-10-01T22:20:18.003Z,14.02
2022-10-01T22:22:44.444Z,12.88
2022-10-01T22:25:13.630Z,16.08
2022-10-01T22:27:44.192Z,13.15
2022-10-01T22:30:13.464Z,13.70
2022-10-01T22:32:50.769Z,14.02
2022-10-01T22:35:31.258Z,14.13
2022-10-01T22:38:21.743Z,13.30
2022-10-01T22:40:51.795Z,13.48
2022-10-01T22:43:18.314Z,11.93
2022-10-01T22:45:56.585Z,12.10
2022-10-01T22:48:36.408Z,11.57
2022-10-01T22:51:15.474Z,10.10
2022-10-01T22:53:59.928Z,12.88
2022-10-01T22:57:02.102Z,10.18
2022-10-01T22:59:42.133Z,10.25
2022-10-01T23:02:32.052Z,10.07
2022-10-01T23:05:12.263Z,8.90
2022-10-01T23:08:00.507Z,9.20
2022-10-01T23:11:02.026Z,10.10
2022-10-01T23:14:10.353Z,11.70
2022-10-01T23:16:44.692Z,12.00
2022-10-01T23:19:46.711Z,10.95
2022-10-01T23:22:31.563Z,9.35
2022-10-01T23:25:19.545Z,10.32
2022-10-01T23:28:28.144Z,11.38
2022-10-01T23:31:23.863Z,7.90
2022-10-01T23:33:54.744Z,7.38
2022-10-01T23:36:30.751Z,9.20
2022-10-01T23:39:37.446Z,7.82
2022-10-01T23:42:34.792Z,8.45
2022-10-01T23:45:14.668Z,7.72
2022-10-01T23:47:50.348Z,8.65
2022-10-01T23:50:31.788Z,8.40
2022-10-01T23:53:22.266Z,8.93
2022-10-01T23:56:11.945Z,6.57
2022-10-01T23:58:43.501Z,8.30
